sensor_id;sensor_type;location;lat;lon;timestamp;temperature;humidity
49765;DHT22;35657;51.204;-4.130;2023-04-29T00:01:29;12.40;99.90
49765;DHT22;35657;51.204;-4.130;2023-04-29T00:03:55;12.30;99.90
49765;DHT22;35657;51.204;-4.130;2023-04-29T00:06:21;12.20;99.90
49765;DHT22;35657;51.204;-4.130;2023-04-29T00:08:48;12.20;99.90
49765;DHT22;35657;51.204;-4.130;2023-04-29T00:11:14;12.10;99.90
49765;DHT22;35657;51.204;-4.130;2023-04-29T00:13:39;12.00;99.90
49765;DHT22;35657;51.204;-4.130;2023-04-29T00:16:06;11.90;99.90
49765;DHT22;35657;51.204;-4.130;2023-04-29T00:18:33;11.90;99.90
49765;DHT22;35657;51.204;-4.130;2023-04-29T00:20:58;11.90;99.90
49765;DHT22;35657;51.204;-4.130;2023-04-29T00:23:24;11.90;99.90
49765;DHT22;35657;51.204;-4.130;2023-04-29T00:25:50;11.90;99.90
49765;DHT22;35657;51.204;-4.130;2023-04-29T00:28:18;11.80;99.90
49765;DHT22;35657;51.204;-4.130;2023-04-29T00:30:43;11.80;99.90
49765;DHT22;35657;51.204;-4.130;2023-04-29T00:33:09;11.80;99.90
49765;DHT22;35657;51.204;-4.130;2023-04-29T00:35:35;11.80;99.90
49765;DHT22;35657;51.204;-4.130;2023-04-29T00:38:00;11.80;99.90
49765;DHT22;35657;51.204;-4.130;2023-04-29T00:40:27;11.90;99.90
49765;DHT22;35657;51.204;-4.130;2023-04-29T00:42:53;11.90;99.90
49765;DHT22;35657;51.204;-4.130;2023-04-29T00:45:19;11.90;99.90
49765;DHT22;35657;51.204;-4.130;2023-04-29T00:47:44;11.90;99.90
49765;DHT22;35657;51.204;-4.130;2023-04-29T00:50:10;12.00;99.90
49765;DHT22;35657;51.204;-4.130;2023-04-29T00:52:37;12.00;99.90
49765;DHT22;35657;51.204;-4.130;2023-04-29T00:55:07;12.00;99.90
49765;DHT22;35657;51.204;-4.130;2023-04-29T00:57:33;12.00;99.90
49765;DHT22;35657;51.204;-4.130;2023-04-29T00:59:59;12.00;99.90
49765;DHT22;35657;51.204;-4.130;2023-04-29T01:02:26;12.00;99.90
49765;DHT22;35657;51.204;-4.130;2023-04-29T01:04:52;12.10;99.90
49765;DHT22;35657;51.204;-4.130;2023-04-29T01:07:28;12.10;99.90
49765;DHT22;35657;51.204;-4.130;2023-04-29T01:10:08;12.00;99.90
49765;DHT22;35657;51.204;-4.130;2023-04-29T01:15:20;12.00;99.90
49765;DHT22;35657;51.204;-4.130;2023-04-29T01:18:17;12.20;99.90
49765;DHT22;35657;51.204;-4.130;2023-04-29T01:20:41;12.10;99.90
49765;DHT22;35657;51.204;-4.130;2023-04-29T01:23:09;12.20;99.90
49765;DHT22;35657;51.204;-4.130;2023-04-29T01:25:35;12.40;99.90
49765;DHT22;35657;51.204;-4.130;2023-04-29T01:44:20;12.40;99.90
49765;DHT22;35657;51.204;-4.130;2023-04-29T01:46:50;12.30;99.90
49765;DHT22;35657;51.204;-4.130;2023-04-29T01:49:20;12.20;99.90
49765;DHT22;35657;51.204;-4.130;2023-04-29T01:51:46;12.20;99.90
49765;DHT22;35657;51.204;-4.130;2023-04-29T01:54:12;12.20;99.90
49765;DHT22;35657;51.204;-4.130;2023-04-29T01:56:37;12.20;99.90
49765;DHT22;35657;51.204;-4.130;2023-04-29T01:59:03;12.20;99.90
49765;DHT22;35657;51.204;-4.130;2023-04-29T02:01:29;12.20;99.90
49765;DHT22;35657;51.204;-4.130;2023-04-29T02:03:55;12.10;99.90
49765;DHT22;35657;51.204;-4.130;2023-04-29T02:06:21;12.10;99.90
49765;DHT22;35657;51.204;-4.130;2023-04-29T02:08:47;12.10;99.90
49765;DHT22;35657;51.204;-4.130;2023-04-29T02:11:13;12.20;99.90
49765;DHT22;35657;51.204;-4.130;2023-04-29T02:13:39;12.20;99.90
49765;DHT22;35657;51.204;-4.130;2023-04-29T02:16:12;12.20;99.90
49765;DHT22;35657;51.204;-4.130;2023-04-29T02:18:38;12.20;99.90
49765;DHT22;35657;51.204;-4.130;2023-04-29T02:21:04;12.10;99.90
49765;DHT22;35657;51.204;-4.130;2023-04-29T02:23:30;12.10;99.90
49765;DHT22;35657;51.204;-4.130;2023-04-29T02:25:56;12.20;99.90
49765;DHT22;35657;51.204;-4.130;2023-04-29T02:28:22;12.20;99.90
49765;DHT22;35657;51.204;-4.130;2023-04-29T02:30:50;12.10;99.90
49765;DHT22;35657;51.204;-4.130;2023-04-29T02:33:16;12.10;99.90
49765;DHT22;35657;51.204;-4.130;2023-04-29T02:35:43;12.20;99.90
49765;DHT22;35657;51.204;-4.130;2023-04-29T02:38:09;12.20;99.90
49765;DHT22;35657;51.204;-4.130;2023-04-29T02:40:42;12.20;99.90
49765;DHT22;35657;51.204;-4.130;2023-04-29T02:43:09;12.20;99.90
49765;DHT22;35657;51.204;-4.130;2023-04-29T02:45:35;12.20;99.90
49765;DHT22;35657;51.204;-4.130;2023-04-29T02:48:01;12.20;99.90
49765;DHT22;35657;51.204;-4.130;2023-04-29T02:50:27;12.20;99.90
49765;DHT22;35657;51.204;-4.130;2023-04-29T02:52:53;12.30;99.90
49765;DHT22;35657;51.204;-4.130;2023-04-29T02:55:19;12.40;99.90
49765;DHT22;35657;51.204;-4.130;2023-04-29T02:57:45;12.50;99.90
49765;DHT22;35657;51.204;-4.130;2023-04-29T03:00:11;12.60;99.90
49765;DHT22;35657;51.204;-4.130;2023-04-29T03:02:36;12.60;99.90
49765;DHT22;35657;51.204;-4.130;2023-04-29T03:05:03;12.60;99.90
49765;DHT22;35657;51.204;-4.130;2023-04-29T03:07:29;12.60;99.90
49765;DHT22;35657;51.204;-4.130;2023-04-29T03:09:55;12.60;99.90
49765;DHT22;35657;51.204;-4.130;2023-04-29T03:12:21;12.70;99.90
49765;DHT22;35657;51.204;-4.130;2023-04-29T03:14:47;12.70;99.90
49765;DHT22;35657;51.204;-4.130;2023-04-29T03:17:13;12.70;99.90
49765;DHT22;35657;51.204;-4.130;2023-04-29T03:19:39;12.60;99.90
49765;DHT22;35657;51.204;-4.130;2023-04-29T03:22:05;12.50;99.90
49765;DHT22;35657;51.204;-4.130;2023-04-29T03:24:32;12.50;99.90
49765;DHT22;35657;51.204;-4.130;2023-04-29T03:26:58;12.40;99.90
49765;DHT22;35657;51.204;-4.130;2023-04-29T03:29:26;12.40;99.90
49765;DHT22;35657;51.204;-4.130;2023-04-29T03:31:53;12.30;99.90
49765;DHT22;35657;51.204;-4.130;2023-04-29T03:34:19;12.30;99.90
49765;DHT22;35657;51.204;-4.130;2023-04-29T03:36:44;12.30;99.90
49765;DHT22;35657;51.204;-4.130;2023-04-29T03:39:10;12.30;99.90
49765;DHT22;35657;51.204;-4.130;2023-04-29T03:41:37;12.30;99.90
49765;DHT22;35657;51.204;-4.130;2023-04-29T03:44:03;12.30;99.90
49765;DHT22;35657;51.204;-4.130;2023-04-29T03:46:29;12.20;99.90
49765;DHT22;35657;51.204;-4.130;2023-04-29T03:48:55;12.20;99.90
49765;DHT22;35657;51.204;-4.130;2023-04-29T03:51:25;12.20;99.90
49765;DHT22;35657;51.204;-4.130;2023-04-29T03:53:53;12.30;99.90
49765;DHT22;35657;51.204;-4.130;2023-04-29T03:56:19;12.20;99.90
49765;DHT22;35657;51.204;-4.130;2023-04-29T03:58:44;12.20;99.90
49765;DHT22;35657;51.204;-4.130;2023-04-29T04:01:11;12.20;99.90
49765;DHT22;35657;51.204;-4.130;2023-04-29T04:03:37;12.20;99.90
49765;DHT22;35657;51.204;-4.130;2023-04-29T04:06:03;12.10;99.90
49765;DHT22;35657;51.204;-4.130;2023-04-29T04:08:28;12.10;99.90
49765;DHT22;35657;51.204;-4.130;2023-04-29T04:10:54;12.20;99.90
49765;DHT22;35657;51.204;-4.130;2023-04-29T04:13:27;12.10;99.90
49765;DHT22;35657;51.204;-4.130;2023-04-29T04:15:53;12.10;99.90
49765;DHT22;35657;51.204;-4.130;2023-04-29T04:18:18;12.10;99.90
49765;DHT22;35657;51.204;-4.130;2023-04-29T04:20:44;12.10;99.90
49765;DHT22;35657;51.204;-4.130;2023-04-29T04:23:10;12.10;99.90
49765;DHT22;35657;51.204;-4.130;2023-04-29T04:25:35;12.10;99.90
49765;DHT22;35657;51.204;-4.130;2023-04-29T04:28:01;12.20;99.90
49765;DHT22;35657;51.204;-4.130;2023-04-29T04:30:27;12.30;99.90
49765;DHT22;35657;51.204;-4.130;2023-04-29T04:32:52;12.30;99.90
49765;DHT22;35657;51.204;-4.130;2023-04-29T04:35:18;12.40;99.90
49765;DHT22;35657;51.204;-4.130;2023-04-29T04:37:45;12.50;99.90
49765;DHT22;35657;51.204;-4.130;2023-04-29T04:40:11;12.50;99.90
49765;DHT22;35657;51.204;-4.130;2023-04-29T04:42:38;12.50;99.90
49765;DHT22;35657;51.204;-4.130;2023-04-29T04:45:04;12.60;99.90
49765;DHT22;35657;51.204;-4.130;2023-04-29T04:47:30;12.60;99.90
49765;DHT22;35657;51.204;-4.130;2023-04-29T04:49:56;12.60;99.90
49765;DHT22;35657;51.204;-4.130;2023-04-29T04:52:22;12.70;99.90
49765;DHT22;35657;51.204;-4.130;2023-04-29T04:54:48;12.70;99.90
49765;DHT22;35657;51.204;-4.130;2023-04-29T04:57:13;12.70;99.90
49765;DHT22;35657;51.204;-4.130;2023-04-29T04:59:39;12.60;99.90
49765;DHT22;35657;51.204;-4.130;2023-04-29T05:02:05;12.50;99.90
49765;DHT22;35657;51.204;-4.130;2023-04-29T05:04:31;12.50;99.90
49765;DHT22;35657;51.204;-4.130;2023-04-29T05:06:56;12.40;99.90
49765;DHT22;35657;51.204;-4.130;2023-04-29T05:09:22;12.30;99.90
49765;DHT22;35657;51.204;-4.130;2023-04-29T05:11:48;12.30;99.90
49765;DHT22;35657;51.204;-4.130;2023-04-29T05:14:13;12.30;99.90
49765;DHT22;35657;51.204;-4.130;2023-04-29T05:16:39;12.30;99.90
49765;DHT22;35657;51.204;-4.130;2023-04-29T05:19:05;12.30;99.90
49765;DHT22;35657;51.204;-4.130;2023-04-29T05:21:31;12.30;99.90
49765;DHT22;35657;51.204;-4.130;2023-04-29T05:23:56;12.30;99.90
49765;DHT22;35657;51.204;-4.130;2023-04-29T05:26:22;12.30;99.90
49765;DHT22;35657;51.204;-4.130;2023-04-29T05:28:48;12.30;99.90
49765;DHT22;35657;51.204;-4.130;2023-04-29T05:31:14;12.30;99.90
49765;DHT22;35657;51.204;-4.130;2023-04-29T05:33:39;12.30;99.90
49765;DHT22;35657;51.204;-4.130;2023-04-29T05:36:05;12.30;99.90
49765;DHT22;35657;51.204;-4.130;2023-04-29T05:38:31;12.30;99.90
49765;DHT22;35657;51.204;-4.130;2023-04-29T05:40:57;12.30;99.90
49765;DHT22;35657;51.204;-4.130;2023-04-29T05:43:23;12.30;99.90
49765;DHT22;35657;51.204;-4.130;2023-04-29T05:45:50;12.30;99.90
49765;DHT22;35657;51.204;-4.130;2023-04-29T05:48:16;12.30;99.90
49765;DHT22;35657;51.204;-4.130;2023-04-29T05:50:42;12.30;99.90
49765;DHT22;35657;51.204;-4.130;2023-04-29T05:53:08;12.30;99.90
49765;DHT22;35657;51.204;-4.130;2023-04-29T05:55:34;12.30;99.90
49765;DHT22;35657;51.204;-4.130;2023-04-29T05:58:00;12.30;99.90
49765;DHT22;35657;51.204;-4.130;2023-04-29T06:00:25;12.30;99.90
49765;DHT22;35657;51.204;-4.130;2023-04-29T06:02:51;12.40;99.90
49765;DHT22;35657;51.204;-4.130;2023-04-29T06:05:17;12.40;99.90
49765;DHT22;35657;51.204;-4.130;2023-04-29T06:07:43;12.50;99.90
49765;DHT22;35657;51.204;-4.130;2023-04-29T06:10:09;12.60;99.90
49765;DHT22;35657;51.204;-4.130;2023-04-29T06:12:35;12.70;99.90
49765;DHT22;35657;51.204;-4.130;2023-04-29T06:15:01;12.80;99.90
49765;DHT22;35657;51.204;-4.130;2023-04-29T06:17:26;12.80;99.90
49765;DHT22;35657;51.204;-4.130;2023-04-29T06:19:54;12.90;99.90
49765;DHT22;35657;51.204;-4.130;2023-04-29T06:22:20;12.90;99.90
49765;DHT22;35657;51.204;-4.130;2023-04-29T06:24:46;12.70;99.90
49765;DHT22;35657;51.204;-4.130;2023-04-29T06:27:14;12.40;99.90
49765;DHT22;35657;51.204;-4.130;2023-04-29T06:29:40;12.30;99.90
49765;DHT22;35657;51.204;-4.130;2023-04-29T06:32:07;12.20;99.90
49765;DHT22;35657;51.204;-4.130;2023-04-29T06:34:33;12.10;99.90
49765;DHT22;35657;51.204;-4.130;2023-04-29T06:36:58;12.20;99.90
49765;DHT22;35657;51.204;-4.130;2023-04-29T06:39:24;12.20;99.90
49765;DHT22;35657;51.204;-4.130;2023-04-29T06:41:50;12.20;99.90
49765;DHT22;35657;51.204;-4.130;2023-04-29T06:44:17;12.20;99.90
49765;DHT22;35657;51.204;-4.130;2023-04-29T06:46:44;12.30;99.90
49765;DHT22;35657;51.204;-4.130;2023-04-29T06:49:09;12.30;99.90
49765;DHT22;35657;51.204;-4.130;2023-04-29T06:51:38;12.20;99.90
49765;DHT22;35657;51.204;-4.130;2023-04-29T06:54:03;12.30;99.90
49765;DHT22;35657;51.204;-4.130;2023-04-29T06:56:29;12.30;99.90
49765;DHT22;35657;51.204;-4.130;2023-04-29T06:58:55;12.30;99.90
49765;DHT22;35657;51.204;-4.130;2023-04-29T07:01:20;12.30;99.90
49765;DHT22;35657;51.204;-4.130;2023-04-29T07:03:46;12.10;99.90
49765;DHT22;35657;51.204;-4.130;2023-04-29T07:06:12;12.00;99.90
49765;DHT22;35657;51.204;-4.130;2023-04-29T07:08:38;12.00;99.90
49765;DHT22;35657;51.204;-4.130;2023-04-29T07:11:03;12.10;99.90
49765;DHT22;35657;51.204;-4.130;2023-04-29T07:13:29;12.00;99.90
49765;DHT22;35657;51.204;-4.130;2023-04-29T07:15:55;12.20;99.90
49765;DHT22;35657;51.204;-4.130;2023-04-29T07:18:22;12.20;99.90
49765;DHT22;35657;51.204;-4.130;2023-04-29T07:20:47;12.30;99.90
49765;DHT22;35657;51.204;-4.130;2023-04-29T07:23:15;12.30;99.90
49765;DHT22;35657;51.204;-4.130;2023-04-29T07:25:41;12.30;99.90
49765;DHT22;35657;51.204;-4.130;2023-04-29T07:28:06;12.30;99.90
49765;DHT22;35657;51.204;-4.130;2023-04-29T07:30:35;12.50;99.90
49765;DHT22;35657;51.204;-4.130;2023-04-29T07:33:01;12.60;99.90
49765;DHT22;35657;51.204;-4.130;2023-04-29T07:35:28;12.70;99.90
49765;DHT22;35657;51.204;-4.130;2023-04-29T07:37:55;12.70;99.90
49765;DHT22;35657;51.204;-4.130;2023-04-29T07:40:22;12.80;99.90
49765;DHT22;35657;51.204;-4.130;2023-04-29T07:42:47;12.90;99.90
49765;DHT22;35657;51.204;-4.130;2023-04-29T07:45:13;13.00;99.90
49765;DHT22;35657;51.204;-4.130;2023-04-29T07:47:39;13.00;99.90
49765;DHT22;35657;51.204;-4.130;2023-04-29T07:50:05;13.20;99.90
49765;DHT22;35657;51.204;-4.130;2023-04-29T07:52:31;13.40;99.90
49765;DHT22;35657;51.204;-4.130;2023-04-29T07:54:57;13.40;99.90
49765;DHT22;35657;51.204;-4.130;2023-04-29T07:57:22;13.30;99.90
49765;DHT22;35657;51.204;-4.130;2023-04-29T07:59:54;13.30;99.90
49765;DHT22;35657;51.204;-4.130;2023-04-29T08:02:20;13.30;99.90
49765;DHT22;35657;51.204;-4.130;2023-04-29T08:04:46;13.40;99.90
49765;DHT22;35657;51.204;-4.130;2023-04-29T08:07:12;13.50;99.90
49765;DHT22;35657;51.204;-4.130;2023-04-29T08:09:38;13.50;99.90
49765;DHT22;35657;51.204;-4.130;2023-04-29T08:12:04;13.50;99.90
49765;DHT22;35657;51.204;-4.130;2023-04-29T08:14:30;13.50;99.90
49765;DHT22;35657;51.204;-4.130;2023-04-29T08:16:55;13.50;99.90
49765;DHT22;35657;51.204;-4.130;2023-04-29T08:19:21;13.60;99.90
49765;DHT22;35657;51.204;-4.130;2023-04-29T08:21:47;13.50;99.90
49765;DHT22;35657;51.204;-4.130;2023-04-29T08:24:12;13.50;99.90
49765;DHT22;35657;51.204;-4.130;2023-04-29T08:26:39;13.40;99.90
49765;DHT22;35657;51.204;-4.130;2023-04-29T08:29:06;13.20;99.90
49765;DHT22;35657;51.204;-4.130;2023-04-29T08:31:31;13.30;99.90
49765;DHT22;35657;51.204;-4.130;2023-04-29T08:33:58;13.40;99.90
49765;DHT22;35657;51.204;-4.130;2023-04-29T08:36:23;13.70;99.90
49765;DHT22;35657;51.204;-4.130;2023-04-29T08:38:50;13.90;99.90
49765;DHT22;35657;51.204;-4.130;2023-04-29T08:41:17;13.80;99.90
49765;DHT22;35657;51.204;-4.130;2023-04-29T08:43:43;14.00;99.90
49765;DHT22;35657;51.204;-4.130;2023-04-29T08:46:09;14.00;99.90
49765;DHT22;35657;51.204;-4.130;2023-04-29T08:48:36;13.90;99.90
49765;DHT22;35657;51.204;-4.130;2023-04-29T08:51:02;13.80;99.90
49765;DHT22;35657;51.204;-4.130;2023-04-29T08:53:28;13.60;99.90
49765;DHT22;35657;51.204;-4.130;2023-04-29T08:55:54;13.80;99.90
49765;DHT22;35657;51.204;-4.130;2023-04-29T08:58:22;13.80;99.90
49765;DHT22;35657;51.204;-4.130;2023-04-29T09:00:49;13.80;99.90
49765;DHT22;35657;51.204;-4.130;2023-04-29T09:03:33;13.60;99.90
49765;DHT22;35657;51.204;-4.130;2023-04-29T09:06:01;13.70;99.90
49765;DHT22;35657;51.204;-4.130;2023-04-29T09:08:27;13.70;99.90
49765;DHT22;35657;51.204;-4.130;2023-04-29T09:10:54;13.80;99.90
49765;DHT22;35657;51.204;-4.130;2023-04-29T09:13:29;13.90;99.90
49765;DHT22;35657;51.204;-4.130;2023-04-29T09:15:55;13.90;99.90
49765;DHT22;35657;51.204;-4.130;2023-04-29T09:23:41;14.10;99.90
49765;DHT22;35657;51.204;-4.130;2023-04-29T09:26:07;14.10;99.90
49765;DHT22;35657;51.204;-4.130;2023-04-29T09:28:33;14.00;99.90
49765;DHT22;35657;51.204;-4.130;2023-04-29T09:31:01;14.00;99.90
49765;DHT22;35657;51.204;-4.130;2023-04-29T09:33:31;14.10;99.90
49765;DHT22;35657;51.204;-4.130;2023-04-29T09:35:56;14.20;99.90
49765;DHT22;35657;51.204;-4.130;2023-04-29T09:38:22;14.20;99.90
49765;DHT22;35657;51.204;-4.130;2023-04-29T09:40:48;14.40;99.90
49765;DHT22;35657;51.204;-4.130;2023-04-29T09:43:16;14.40;99.90
49765;DHT22;35657;51.204;-4.130;2023-04-29T09:45:46;14.30;99.90
49765;DHT22;35657;51.204;-4.130;2023-04-29T09:48:14;14.30;99.90
49765;DHT22;35657;51.204;-4.130;2023-04-29T09:50:41;14.20;99.90
49765;DHT22;35657;51.204;-4.130;2023-04-29T09:53:09;14.20;99.90
49765;DHT22;35657;51.204;-4.130;2023-04-29T09:55:57;14.20;99.90
49765;DHT22;35657;51.204;-4.130;2023-04-29T09:58:30;14.40;99.90
49765;DHT22;35657;51.204;-4.130;2023-04-29T10:00:58;14.70;99.90
49765;DHT22;35657;51.204;-4.130;2023-04-29T10:03:36;14.70;99.90
49765;DHT22;35657;51.204;-4.130;2023-04-29T10:06:03;14.90;99.90
49765;DHT22;35657;51.204;-4.130;2023-04-29T10:08:30;14.90;99.90
49765;DHT22;35657;51.204;-4.130;2023-04-29T10:11:01;14.90;99.90
49765;DHT22;35657;51.204;-4.130;2023-04-29T10:13:27;14.90;99.90
49765;DHT22;35657;51.204;-4.130;2023-04-29T10:16:10;15.20;99.90
49765;DHT22;35657;51.204;-4.130;2023-04-29T10:18:40;15.30;99.90
49765;DHT22;35657;51.204;-4.130;2023-04-29T10:21:07;15.30;99.90
49765;DHT22;35657;51.204;-4.130;2023-04-29T10:23:36;15.20;99.90
49765;DHT22;35657;51.204;-4.130;2023-04-29T10:26:03;15.10;99.90
49765;DHT22;35657;51.204;-4.130;2023-04-29T10:28:31;15.00;99.90
49765;DHT22;35657;51.204;-4.130;2023-04-29T10:31:00;15.00;99.90
49765;DHT22;35657;51.204;-4.130;2023-04-29T10:33:32;15.00;99.90
49765;DHT22;35657;51.204;-4.130;2023-04-29T10:36:00;14.90;99.90
49765;DHT22;35657;51.204;-4.130;2023-04-29T10:38:37;14.70;99.90
49765;DHT22;35657;51.204;-4.130;2023-04-29T10:41:13;14.80;99.90
49765;DHT22;35657;51.204;-4.130;2023-04-29T10:43:40;15.20;99.90
49765;DHT22;35657;51.204;-4.130;2023-04-29T10:48:47;15.20;99.90
49765;DHT22;35657;51.204;-4.130;2023-04-29T10:54:12;15.40;99.90
49765;DHT22;35657;51.204;-4.130;2023-04-29T10:56:49;15.30;99.90
49765;DHT22;35657;51.204;-4.130;2023-04-29T10:59:44;15.10;99.90
49765;DHT22;35657;51.204;-4.130;2023-04-29T11:02:09;15.10;99.90
49765;DHT22;35657;51.204;-4.130;2023-04-29T11:05:07;15.00;99.90
49765;DHT22;35657;51.204;-4.130;2023-04-29T11:07:34;15.40;99.90
49765;DHT22;35657;51.204;-4.130;2023-04-29T11:10:01;15.40;99.90
49765;DHT22;35657;51.204;-4.130;2023-04-29T11:12:27;15.30;99.90
49765;DHT22;35657;51.204;-4.130;2023-04-29T11:14:53;15.30;99.90
49765;DHT22;35657;51.204;-4.130;2023-04-29T11:17:27;15.20;99.90
49765;DHT22;35657;51.204;-4.130;2023-04-29T11:20:00;14.90;99.90
49765;DHT22;35657;51.204;-4.130;2023-04-29T11:22:27;15.00;99.90
49765;DHT22;35657;51.204;-4.130;2023-04-29T11:25:01;14.90;99.90
49765;DHT22;35657;51.204;-4.130;2023-04-29T11:27:36;15.00;99.90
49765;DHT22;35657;51.204;-4.130;2023-04-29T11:30:04;14.90;99.90
49765;DHT22;35657;51.204;-4.130;2023-04-29T11:32:33;14.70;99.90
49765;DHT22;35657;51.204;-4.130;2023-04-29T11:35:13;14.80;99.90
49765;DHT22;35657;51.204;-4.130;2023-04-29T11:37:40;15.00;99.90
49765;DHT22;35657;51.204;-4.130;2023-04-29T11:40:07;14.70;99.90
49765;DHT22;35657;51.204;-4.130;2023-04-29T11:42:44;14.80;99.90
49765;DHT22;35657;51.204;-4.130;2023-04-29T11:45:11;15.00;99.90
49765;DHT22;35657;51.204;-4.130;2023-04-29T11:47:38;14.90;99.90
49765;DHT22;35657;51.204;-4.130;2023-04-29T11:50:08;15.00;99.90
49765;DHT22;35657;51.204;-4.130;2023-04-29T11:52:35;15.00;99.90
49765;DHT22;35657;51.204;-4.130;2023-04-29T11:55:02;15.10;99.90
49765;DHT22;35657;51.204;-4.130;2023-04-29T11:57:28;15.00;99.90
49765;DHT22;35657;51.204;-4.130;2023-04-29T11:59:56;15.20;99.90
49765;DHT22;35657;51.204;-4.130;2023-04-29T12:02:31;15.30;99.90
49765;DHT22;35657;51.204;-4.130;2023-04-29T12:04:58;15.20;99.90
49765;DHT22;35657;51.204;-4.130;2023-04-29T12:07:25;15.10;99.90
49765;DHT22;35657;51.204;-4.130;2023-04-29T12:09:51;15.10;99.90
49765;DHT22;35657;51.204;-4.130;2023-04-29T12:12:17;15.20;99.90
49765;DHT22;35657;51.204;-4.130;2023-04-29T12:14:43;15.00;99.90
49765;DHT22;35657;51.204;-4.130;2023-04-29T12:17:09;14.90;99.90
49765;DHT22;35657;51.204;-4.130;2023-04-29T12:19:36;14.80;99.90
49765;DHT22;35657;51.204;-4.130;2023-04-29T12:22:04;14.70;99.90
49765;DHT22;35657;51.204;-4.130;2023-04-29T12:24:37;14.60;99.90
49765;DHT22;35657;51.204;-4.130;2023-04-29T12:27:06;14.70;99.90
49765;DHT22;35657;51.204;-4.130;2023-04-29T12:29:34;14.80;99.90
49765;DHT22;35657;51.204;-4.130;2023-04-29T12:32:00;14.60;99.90
49765;DHT22;35657;51.204;-4.130;2023-04-29T12:34:30;14.50;99.90
49765;DHT22;35657;51.204;-4.130;2023-04-29T12:36:58;14.50;99.90
49765;DHT22;35657;51.204;-4.130;2023-04-29T12:39:25;14.60;99.90
49765;DHT22;35657;51.204;-4.130;2023-04-29T12:41:56;14.80;99.90
49765;DHT22;35657;51.204;-4.130;2023-04-29T12:44:22;14.90;99.90
49765;DHT22;35657;51.204;-4.130;2023-04-29T12:46:48;14.90;99.90
49765;DHT22;35657;51.204;-4.130;2023-04-29T12:49:13;14.80;99.90
49765;DHT22;35657;51.204;-4.130;2023-04-29T12:51:42;14.90;99.90
49765;DHT22;35657;51.204;-4.130;2023-04-29T12:54:08;15.10;99.90
49765;DHT22;35657;51.204;-4.130;2023-04-29T12:56:34;15.00;99.90
49765;DHT22;35657;51.204;-4.130;2023-04-29T12:59:09;15.10;99.90
49765;DHT22;35657;51.204;-4.130;2023-04-29T13:01:37;15.30;99.90
49765;DHT22;35657;51.204;-4.130;2023-04-29T13:04:03;15.00;99.90
49765;DHT22;35657;51.204;-4.130;2023-04-29T13:06:30;15.20;99.90
49765;DHT22;35657;51.204;-4.130;2023-04-29T13:08:56;15.40;99.90
49765;DHT22;35657;51.204;-4.130;2023-04-29T13:11:22;15.50;99.90
49765;DHT22;35657;51.204;-4.130;2023-04-29T13:13:48;15.40;99.90
49765;DHT22;35657;51.204;-4.130;2023-04-29T13:16:14;15.40;99.90
49765;DHT22;35657;51.204;-4.130;2023-04-29T13:18:39;15.30;99.90
49765;DHT22;35657;51.204;-4.130;2023-04-29T13:21:06;15.60;99.90
49765;DHT22;35657;51.204;-4.130;2023-04-29T13:23:31;15.30;99.90
49765;DHT22;35657;51.204;-4.130;2023-04-29T13:25:57;15.10;99.90
49765;DHT22;35657;51.204;-4.130;2023-04-29T13:28:23;15.40;99.90
49765;DHT22;35657;51.204;-4.130;2023-04-29T13:30:49;15.20;99.90
49765;DHT22;35657;51.204;-4.130;2023-04-29T13:33:15;15.40;99.90
49765;DHT22;35657;51.204;-4.130;2023-04-29T13:35:41;15.40;99.90
49765;DHT22;35657;51.204;-4.130;2023-04-29T13:38:07;15.40;99.90
49765;DHT22;35657;51.204;-4.130;2023-04-29T13:40:33;15.00;99.90
49765;DHT22;35657;51.204;-4.130;2023-04-29T13:42:58;15.30;99.90
49765;DHT22;35657;51.204;-4.130;2023-04-29T13:45:24;15.30;99.90
49765;DHT22;35657;51.204;-4.130;2023-04-29T13:47:50;14.90;99.90
49765;DHT22;35657;51.204;-4.130;2023-04-29T13:50:16;15.00;99.90
49765;DHT22;35657;51.204;-4.130;2023-04-29T13:52:42;15.10;99.90
49765;DHT22;35657;51.204;-4.130;2023-04-29T13:55:08;15.40;99.90
49765;DHT22;35657;51.204;-4.130;2023-04-29T13:57:34;15.50;99.90
49765;DHT22;35657;51.204;-4.130;2023-04-29T13:59:59;15.60;99.90
49765;DHT22;35657;51.204;-4.130;2023-04-29T14:02:25;15.40;99.90
49765;DHT22;35657;51.204;-4.130;2023-04-29T14:04:51;15.40;99.90
49765;DHT22;35657;51.204;-4.130;2023-04-29T14:07:17;15.50;99.90
49765;DHT22;35657;51.204;-4.130;2023-04-29T14:09:42;15.40;99.90
49765;DHT22;35657;51.204;-4.130;2023-04-29T14:12:08;15.60;99.90
49765;DHT22;35657;51.204;-4.130;2023-04-29T14:14:35;15.50;99.90
49765;DHT22;35657;51.204;-4.130;2023-04-29T14:17:00;15.40;99.90
49765;DHT22;35657;51.204;-4.130;2023-04-29T14:19:26;15.30;99.90
49765;DHT22;35657;51.204;-4.130;2023-04-29T14:21:52;15.20;99.90
49765;DHT22;35657;51.204;-4.130;2023-04-29T14:24:18;15.30;99.90
49765;DHT22;35657;51.204;-4.130;2023-04-29T14:26:43;15.30;99.90
49765;DHT22;35657;51.204;-4.130;2023-04-29T14:29:09;15.30;99.90
49765;DHT22;35657;51.204;-4.130;2023-04-29T14:31:35;15.20;99.90
49765;DHT22;35657;51.204;-4.130;2023-04-29T14:34:04;15.30;99.90
49765;DHT22;35657;51.204;-4.130;2023-04-29T14:36:30;15.10;99.90
49765;DHT22;35657;51.204;-4.130;2023-04-29T14:38:59;15.20;99.90
49765;DHT22;35657;51.204;-4.130;2023-04-29T14:41:26;15.20;99.90
49765;DHT22;35657;51.204;-4.130;2023-04-29T14:43:52;15.40;99.90
49765;DHT22;35657;51.204;-4.130;2023-04-29T14:46:18;15.80;99.90
49765;DHT22;35657;51.204;-4.130;2023-04-29T14:48:44;15.80;99.90
49765;DHT22;35657;51.204;-4.130;2023-04-29T14:51:10;15.70;99.90
49765;DHT22;35657;51.204;-4.130;2023-04-29T14:53:36;16.00;99.90
49765;DHT22;35657;51.204;-4.130;2023-04-29T14:56:02;15.90;99.90
49765;DHT22;35657;51.204;-4.130;2023-04-29T14:58:28;15.90;99.90
49765;DHT22;35657;51.204;-4.130;2023-04-29T15:00:54;16.10;99.90
49765;DHT22;35657;51.204;-4.130;2023-04-29T15:03:20;15.80;99.90
49765;DHT22;35657;51.204;-4.130;2023-04-29T15:05:47;15.70;99.90
49765;DHT22;35657;51.204;-4.130;2023-04-29T15:08:14;15.80;99.90
49765;DHT22;35657;51.204;-4.130;2023-04-29T15:10:40;15.90;99.90
49765;DHT22;35657;51.204;-4.130;2023-04-29T15:13:05;16.20;99.90
49765;DHT22;35657;51.204;-4.130;2023-04-29T15:15:31;16.10;99.90
49765;DHT22;35657;51.204;-4.130;2023-04-29T15:17:57;16.20;99.90
49765;DHT22;35657;51.204;-4.130;2023-04-29T15:20:22;16.10;99.90
49765;DHT22;35657;51.204;-4.130;2023-04-29T15:22:48;15.90;99.90
49765;DHT22;35657;51.204;-4.130;2023-04-29T15:25:14;15.70;99.90
49765;DHT22;35657;51.204;-4.130;2023-04-29T15:27:40;15.90;99.90
49765;DHT22;35657;51.204;-4.130;2023-04-29T15:30:07;15.70;99.90
49765;DHT22;35657;51.204;-4.130;2023-04-29T15:32:32;15.80;99.90
49765;DHT22;35657;51.204;-4.130;2023-04-29T15:35:02;15.90;99.90
49765;DHT22;35657;51.204;-4.130;2023-04-29T15:37:28;16.00;99.90
49765;DHT22;35657;51.204;-4.130;2023-04-29T15:39:57;15.70;99.90
49765;DHT22;35657;51.204;-4.130;2023-04-29T15:42:23;15.70;99.90
49765;DHT22;35657;51.204;-4.130;2023-04-29T15:44:49;15.90;99.90